sensor_id;sensor_type;location;lat;lon;timestamp;P1;durP1;ratioP1;P2;durP2;ratioP2
49824;SDS011;35714;55.708;37.478;2023-05-23T00:02:08;13.50;;;5.43;;
49824;SDS011;35714;55.708;37.478;2023-05-23T00:04:34;8.20;;;5.13;;
49824;SDS011;35714;55.708;37.478;2023-05-23T00:07:03;8.00;;;5.07;;
49824;SDS011;35714;55.708;37.478;2023-05-23T00:09:28;9.65;;;5.32;;
49824;SDS011;35714;55.708;37.478;2023-05-23T00:11:54;16.38;;;5.70;;
49824;SDS011;35714;55.708;37.478;2023-05-23T00:14:20;10.77;;;5.88;;
49824;SDS011;35714;55.708;37.478;2023-05-23T00:16:46;12.65;;;5.70;;
49824;SDS011;35714;55.708;37.478;2023-05-23T00:19:14;11.68;;;4.72;;
49824;SDS011;35714;55.708;37.478;2023-05-23T00:21:45;11.50;;;6.07;;
49824;SDS011;35714;55.708;37.478;2023-05-23T00:24:15;8.52;;;5.22;;
49824;SDS011;35714;55.708;37.478;2023-05-23T00:26:45;7.70;;;5.20;;
49824;SDS011;35714;55.708;37.478;2023-05-23T00:29:11;8.23;;;5.25;;
49824;SDS011;35714;55.708;37.478;2023-05-23T00:31:41;9.38;;;5.80;;
49824;SDS011;35714;55.708;37.478;2023-05-23T00:34:19;9.80;;;5.30;;
49824;SDS011;35714;55.708;37.478;2023-05-23T00:36:45;13.63;;;6.53;;
49824;SDS011;35714;55.708;37.478;2023-05-23T00:39:14;14.60;;;6.53;;
49824;SDS011;35714;55.708;37.478;2023-05-23T00:41:47;9.65;;;5.90;;
49824;SDS011;35714;55.708;37.478;2023-05-23T00:44:14;13.73;;;6.43;;
49824;SDS011;35714;55.708;37.478;2023-05-23T00:46:40;10.38;;;5.93;;
49824;SDS011;35714;55.708;37.478;2023-05-23T00:49:10;9.73;;;6.60;;
49824;SDS011;35714;55.708;37.478;2023-05-23T00:51:38;14.88;;;6.10;;
49824;SDS011;35714;55.708;37.478;2023-05-23T00:54:07;14.20;;;6.53;;
49824;SDS011;35714;55.708;37.478;2023-05-23T00:56:34;9.10;;;6.18;;
49824;SDS011;35714;55.708;37.478;2023-05-23T00:59:00;13.43;;;6.30;;
49824;SDS011;35714;55.708;37.478;2023-05-23T01:01:26;9.88;;;6.28;;
49824;SDS011;35714;55.708;37.478;2023-05-23T01:03:52;11.88;;;6.28;;
49824;SDS011;35714;55.708;37.478;2023-05-23T01:06:18;11.27;;;6.60;;
49824;SDS011;35714;55.708;37.478;2023-05-23T01:08:44;10.32;;;6.40;;
49824;SDS011;35714;55.708;37.478;2023-05-23T01:11:18;9.40;;;6.47;;
49824;SDS011;35714;55.708;37.478;2023-05-23T01:14:00;14.95;;;6.70;;
49824;SDS011;35714;55.708;37.478;2023-05-23T01:16:34;12.20;;;6.53;;
49824;SDS011;35714;55.708;37.478;2023-05-23T01:19:12;10.73;;;5.85;;
49824;SDS011;35714;55.708;37.478;2023-05-23T01:21:55;12.68;;;6.72;;
49824;SDS011;35714;55.708;37.478;2023-05-23T01:24:35;12.65;;;6.97;;
49824;SDS011;35714;55.708;37.478;2023-05-23T01:27:13;10.68;;;6.38;;
49824;SDS011;35714;55.708;37.478;2023-05-23T01:29:56;12.90;;;6.70;;
49824;SDS011;35714;55.708;37.478;2023-05-23T01:32:23;12.02;;;6.55;;
49824;SDS011;35714;55.708;37.478;2023-05-23T01:34:51;13.52;;;7.45;;
49824;SDS011;35714;55.708;37.478;2023-05-23T01:37:18;12.18;;;6.13;;
49824;SDS011;35714;55.708;37.478;2023-05-23T01:39:44;13.90;;;6.97;;
49824;SDS011;35714;55.708;37.478;2023-05-23T01:42:10;10.45;;;6.85;;
49824;SDS011;35714;55.708;37.478;2023-05-23T01:44:37;9.95;;;6.82;;
49824;SDS011;35714;55.708;37.478;2023-05-23T01:47:04;10.30;;;7.05;;
49824;SDS011;35714;55.708;37.478;2023-05-23T01:49:31;12.57;;;7.18;;
49824;SDS011;35714;55.708;37.478;2023-05-23T01:51:59;12.68;;;7.97;;
49824;SDS011;35714;55.708;37.478;2023-05-23T01:54:26;10.23;;;6.82;;
49824;SDS011;35714;55.708;37.478;2023-05-23T01:56:56;10.05;;;6.10;;
49824;SDS011;35714;55.708;37.478;2023-05-23T01:59:23;13.23;;;6.95;;
49824;SDS011;35714;55.708;37.478;2023-05-23T02:01:49;13.48;;;7.70;;
49824;SDS011;35714;55.708;37.478;2023-05-23T02:04:15;10.48;;;6.60;;
49824;SDS011;35714;55.708;37.478;2023-05-23T02:06:41;11.93;;;6.38;;
49824;SDS011;35714;55.708;37.478;2023-05-23T02:09:10;10.45;;;7.15;;
49824;SDS011;35714;55.708;37.478;2023-05-23T02:11:36;11.43;;;6.75;;
49824;SDS011;35714;55.708;37.478;2023-05-23T02:14:02;9.50;;;6.57;;
49824;SDS011;35714;55.708;37.478;2023-05-23T02:16:28;14.90;;;6.90;;
49824;SDS011;35714;55.708;37.478;2023-05-23T02:18:54;9.68;;;6.18;;
49824;SDS011;35714;55.708;37.478;2023-05-23T02:21:22;9.70;;;5.85;;
49824;SDS011;35714;55.708;37.478;2023-05-23T02:23:48;10.98;;;6.47;;
49824;SDS011;35714;55.708;37.478;2023-05-23T02:26:16;8.98;;;6.70;;
49824;SDS011;35714;55.708;37.478;2023-05-23T02:28:43;14.70;;;8.00;;
49824;SDS011;35714;55.708;37.478;2023-05-23T02:31:09;12.32;;;7.82;;
49824;SDS011;35714;55.708;37.478;2023-05-23T02:33:35;16.83;;;8.50;;
49824;SDS011;35714;55.708;37.478;2023-05-23T02:36:01;11.27;;;7.38;;
49824;SDS011;35714;55.708;37.478;2023-05-23T02:38:29;11.93;;;7.25;;
49824;SDS011;35714;55.708;37.478;2023-05-23T02:40:55;14.60;;;7.70;;
49824;SDS011;35714;55.708;37.478;2023-05-23T02:43:22;11.18;;;7.07;;
49824;SDS011;35714;55.708;37.478;2023-05-23T02:45:48;9.07;;;6.80;;
49824;SDS011;35714;55.708;37.478;2023-05-23T02:48:14;16.23;;;7.63;;
49824;SDS011;35714;55.708;37.478;2023-05-23T02:50:40;11.30;;;7.20;;
49824;SDS011;35714;55.708;37.478;2023-05-23T02:53:05;11.23;;;7.55;;
49824;SDS011;35714;55.708;37.478;2023-05-23T02:55:31;10.90;;;7.55;;
49824;SDS011;35714;55.708;37.478;2023-05-23T02:57:57;11.50;;;7.30;;
49824;SDS011;35714;55.708;37.478;2023-05-23T03:00:23;15.13;;;8.38;;
49824;SDS011;35714;55.708;37.478;2023-05-23T03:02:53;14.88;;;8.75;;
49824;SDS011;35714;55.708;37.478;2023-05-23T03:05:19;13.93;;;7.90;;
49824;SDS011;35714;55.708;37.478;2023-05-23T03:07:45;13.50;;;7.55;;
49824;SDS011;35714;55.708;37.478;2023-05-23T03:10:10;11.25;;;7.53;;
49824;SDS011;35714;55.708;37.478;2023-05-23T03:12:37;15.10;;;8.27;;
49824;SDS011;35714;55.708;37.478;2023-05-23T03:15:02;12.40;;;7.68;;
49824;SDS011;35714;55.708;37.478;2023-05-23T03:17:32;11.35;;;8.52;;
49824;SDS011;35714;55.708;37.478;2023-05-23T03:19:58;11.90;;;8.35;;
49824;SDS011;35714;55.708;37.478;2023-05-23T03:22:23;15.02;;;8.45;;
49824;SDS011;35714;55.708;37.478;2023-05-23T03:24:50;10.52;;;6.65;;
49824;SDS011;35714;55.708;37.478;2023-05-23T03:27:15;14.20;;;7.35;;
49824;SDS011;35714;55.708;37.478;2023-05-23T03:29:41;11.55;;;7.40;;
49824;SDS011;35714;55.708;37.478;2023-05-23T03:32:07;12.15;;;6.53;;
49824;SDS011;35714;55.708;37.478;2023-05-23T03:34:33;10.52;;;7.57;;
49824;SDS011;35714;55.708;37.478;2023-05-23T03:37:02;12.25;;;7.10;;
49824;SDS011;35714;55.708;37.478;2023-05-23T03:39:28;14.27;;;10.73;;
49824;SDS011;35714;55.708;37.478;2023-05-23T03:41:55;13.43;;;8.82;;
49824;SDS011;35714;55.708;37.478;2023-05-23T03:44:21;11.15;;;7.68;;
49824;SDS011;35714;55.708;37.478;2023-05-23T03:46:47;10.68;;;6.80;;
49824;SDS011;35714;55.708;37.478;2023-05-23T03:49:14;16.92;;;10.38;;
49824;SDS011;35714;55.708;37.478;2023-05-23T03:51:40;15.90;;;8.75;;
49824;SDS011;35714;55.708;37.478;2023-05-23T03:54:06;13.32;;;6.95;;
49824;SDS011;35714;55.708;37.478;2023-05-23T03:56:32;12.38;;;6.38;;
49824;SDS011;35714;55.708;37.478;2023-05-23T03:58:57;10.15;;;6.15;;
49824;SDS011;35714;55.708;37.478;2023-05-23T04:01:23;12.40;;;5.60;;
49824;SDS011;35714;55.708;37.478;2023-05-23T04:03:49;9.55;;;5.88;;
49824;SDS011;35714;55.708;37.478;2023-05-23T04:06:16;14.77;;;6.90;;
49824;SDS011;35714;55.708;37.478;2023-05-23T04:08:44;11.13;;;5.72;;
49824;SDS011;35714;55.708;37.478;2023-05-23T04:11:11;11.55;;;6.05;;
49824;SDS011;35714;55.708;37.478;2023-05-23T04:13:39;13.57;;;6.57;;
49824;SDS011;35714;55.708;37.478;2023-05-23T04:16:07;16.77;;;6.88;;
49824;SDS011;35714;55.708;37.478;2023-05-23T04:18:32;9.95;;;5.78;;
49824;SDS011;35714;55.708;37.478;2023-05-23T04:20:58;13.02;;;7.25;;
49824;SDS011;35714;55.708;37.478;2023-05-23T04:23:24;11.82;;;7.20;;
49824;SDS011;35714;55.708;37.478;2023-05-23T04:25:52;19.33;;;8.38;;
49824;SDS011;35714;55.708;37.478;2023-05-23T04:28:22;17.38;;;8.75;;
49824;SDS011;35714;55.708;37.478;2023-05-23T04:30:48;12.68;;;8.05;;
49824;SDS011;35714;55.708;37.478;2023-05-23T04:33:16;10.70;;;5.75;;
49824;SDS011;35714;55.708;37.478;2023-05-23T04:35:45;17.42;;;7.68;;
49824;SDS011;35714;55.708;37.478;2023-05-23T04:38:11;13.10;;;6.85;;
49824;SDS011;35714;55.708;37.478;2023-05-23T04:40:38;11.90;;;7.72;;
49824;SDS011;35714;55.708;37.478;2023-05-23T04:43:14;11.50;;;7.50;;
49824;SDS011;35714;55.708;37.478;2023-05-23T04:45:47;12.38;;;5.68;;
49824;SDS011;35714;55.708;37.478;2023-05-23T04:48:34;10.75;;;6.10;;
49824;SDS011;35714;55.708;37.478;2023-05-23T04:51:02;16.60;;;8.40;;
49824;SDS011;35714;55.708;37.478;2023-05-23T04:53:31;10.38;;;6.32;;
49824;SDS011;35714;55.708;37.478;2023-05-23T04:55:57;12.80;;;6.10;;
49824;SDS011;35714;55.708;37.478;2023-05-23T04:58:24;11.70;;;5.53;;
49824;SDS011;35714;55.708;37.478;2023-05-23T05:00:54;14.27;;;6.82;;
49824;SDS011;35714;55.708;37.478;2023-05-23T05:03:19;9.27;;;4.95;;
49824;SDS011;35714;55.708;37.478;2023-05-23T05:05:46;12.20;;;6.13;;
49824;SDS011;35714;55.708;37.478;2023-05-23T05:08:13;16.55;;;9.30;;
49824;SDS011;35714;55.708;37.478;2023-05-23T05:10:39;12.02;;;7.20;;
49824;SDS011;35714;55.708;37.478;2023-05-23T05:13:06;13.98;;;7.38;;
49824;SDS011;35714;55.708;37.478;2023-05-23T05:15:41;10.07;;;5.80;;
49824;SDS011;35714;55.708;37.478;2023-05-23T05:18:07;10.43;;;5.63;;
49824;SDS011;35714;55.708;37.478;2023-05-23T05:20:33;8.90;;;5.10;;
49824;SDS011;35714;55.708;37.478;2023-05-23T05:22:59;12.07;;;4.97;;
49824;SDS011;35714;55.708;37.478;2023-05-23T05:25:27;9.25;;;4.68;;
49824;SDS011;35714;55.708;37.478;2023-05-23T05:27:57;9.90;;;4.60;;
49824;SDS011;35714;55.708;37.478;2023-05-23T05:30:29;10.25;;;5.15;;
49824;SDS011;35714;55.708;37.478;2023-05-23T05:32:58;21.40;;;10.85;;
49824;SDS011;35714;55.708;37.478;2023-05-23T05:35:26;16.35;;;5.45;;
49824;SDS011;35714;55.708;37.478;2023-05-23T05:37:52;11.30;;;4.93;;
49824;SDS011;35714;55.708;37.478;2023-05-23T05:40:17;13.13;;;6.20;;
49824;SDS011;35714;55.708;37.478;2023-05-23T05:42:43;8.50;;;4.60;;
49824;SDS011;35714;55.708;37.478;2023-05-23T05:45:09;10.98;;;5.78;;
49824;SDS011;35714;55.708;37.478;2023-05-23T05:47:37;11.40;;;4.90;;
49824;SDS011;35714;55.708;37.478;2023-05-23T05:50:04;11.25;;;5.70;;
49824;SDS011;35714;55.708;37.478;2023-05-23T05:52:32;9.82;;;5.78;;
49824;SDS011;35714;55.708;37.478;2023-05-23T05:55:01;14.70;;;7.28;;
49824;SDS011;35714;55.708;37.478;2023-05-23T05:57:27;12.65;;;6.70;;
49824;SDS011;35714;55.708;37.478;2023-05-23T05:59:53;12.30;;;5.57;;
49824;SDS011;35714;55.708;37.478;2023-05-23T06:02:19;9.60;;;4.85;;
49824;SDS011;35714;55.708;37.478;2023-05-23T06:04:45;11.27;;;5.18;;
49824;SDS011;35714;55.708;37.478;2023-05-23T06:07:11;14.60;;;5.20;;
49824;SDS011;35714;55.708;37.478;2023-05-23T06:09:36;16.58;;;5.75;;
49824;SDS011;35714;55.708;37.478;2023-05-23T06:12:02;9.35;;;4.55;;
49824;SDS011;35714;55.708;37.478;2023-05-23T06:14:28;10.85;;;5.10;;
49824;SDS011;35714;55.708;37.478;2023-05-23T06:16:54;11.07;;;4.18;;
49824;SDS011;35714;55.708;37.478;2023-05-23T06:19:20;12.20;;;4.40;;
49824;SDS011;35714;55.708;37.478;2023-05-23T06:21:46;11.00;;;5.32;;
49824;SDS011;35714;55.708;37.478;2023-05-23T06:24:12;12.35;;;3.92;;
49824;SDS011;35714;55.708;37.478;2023-05-23T06:26:39;11.40;;;4.80;;
49824;SDS011;35714;55.708;37.478;2023-05-23T06:29:07;10.82;;;5.15;;
49824;SDS011;35714;55.708;37.478;2023-05-23T06:31:33;11.60;;;4.40;;
49824;SDS011;35714;55.708;37.478;2023-05-23T06:33:59;7.53;;;3.65;;
49824;SDS011;35714;55.708;37.478;2023-05-23T06:36:25;10.55;;;4.18;;
49824;SDS011;35714;55.708;37.478;2023-05-23T06:38:51;11.98;;;3.60;;
49824;SDS011;35714;55.708;37.478;2023-05-23T06:41:16;13.35;;;7.20;;
49824;SDS011;35714;55.708;37.478;2023-05-23T06:43:42;8.35;;;4.68;;
49824;SDS011;35714;55.708;37.478;2023-05-23T06:46:13;10.82;;;5.18;;
49824;SDS011;35714;55.708;37.478;2023-05-23T06:48:39;12.32;;;5.22;;
49824;SDS011;35714;55.708;37.478;2023-05-23T06:51:05;13.85;;;4.30;;
49824;SDS011;35714;55.708;37.478;2023-05-23T06:53:30;9.68;;;4.80;;
49824;SDS011;35714;55.708;37.478;2023-05-23T06:55:59;7.18;;;3.72;;
49824;SDS011;35714;55.708;37.478;2023-05-23T06:58:26;9.93;;;3.65;;
49824;SDS011;35714;55.708;37.478;2023-05-23T07:00:54;9.55;;;3.92;;
49824;SDS011;35714;55.708;37.478;2023-05-23T07:03:26;8.52;;;3.42;;
49824;SDS011;35714;55.708;37.478;2023-05-23T07:05:53;6.43;;;3.47;;
49824;SDS011;35714;55.708;37.478;2023-05-23T07:08:21;6.80;;;3.28;;
49824;SDS011;35714;55.708;37.478;2023-05-23T07:11:12;9.20;;;3.60;;
49824;SDS011;35714;55.708;37.478;2023-05-23T07:13:42;7.13;;;3.40;;
49824;SDS011;35714;55.708;37.478;2023-05-23T07:16:13;8.70;;;3.53;;
49824;SDS011;35714;55.708;37.478;2023-05-23T07:18:50;8.40;;;3.35;;
49824;SDS011;35714;55.708;37.478;2023-05-23T07:21:16;10.40;;;3.92;;
49824;SDS011;35714;55.708;37.478;2023-05-23T07:23:44;6.53;;;3.25;;
49824;SDS011;35714;55.708;37.478;2023-05-23T07:26:09;8.70;;;4.07;;
49824;SDS011;35714;55.708;37.478;2023-05-23T07:28:44;9.05;;;3.55;;
49824;SDS011;35714;55.708;37.478;2023-05-23T07:31:10;11.40;;;3.10;;
49824;SDS011;35714;55.708;37.478;2023-05-23T07:33:37;7.82;;;3.20;;
49824;SDS011;35714;55.708;37.478;2023-05-23T07:36:04;8.27;;;3.08;;
49824;SDS011;35714;55.708;37.478;2023-05-23T07:38:30;7.43;;;3.08;;
49824;SDS011;35714;55.708;37.478;2023-05-23T07:40:56;8.55;;;3.55;;
49824;SDS011;35714;55.708;37.478;2023-05-23T07:43:21;8.13;;;3.13;;
49824;SDS011;35714;55.708;37.478;2023-05-23T07:45:47;10.30;;;3.42;;
49824;SDS011;35714;55.708;37.478;2023-05-23T07:48:13;7.38;;;3.20;;
49824;SDS011;35714;55.708;37.478;2023-05-23T07:50:39;11.88;;;3.28;;
49824;SDS011;35714;55.708;37.478;2023-05-23T07:53:07;9.23;;;2.83;;
49824;SDS011;35714;55.708;37.478;2023-05-23T07:55:33;7.35;;;2.85;;
49824;SDS011;35714;55.708;37.478;2023-05-23T07:57:59;7.18;;;3.05;;
49824;SDS011;35714;55.708;37.478;2023-05-23T08:00:26;6.20;;;2.83;;
49824;SDS011;35714;55.708;37.478;2023-05-23T08:02:58;8.05;;;2.60;;
49824;SDS011;35714;55.708;37.478;2023-05-23T08:05:29;6.68;;;2.58;;
49824;SDS011;35714;55.708;37.478;2023-05-23T08:07:56;11.98;;;2.97;;
49824;SDS011;35714;55.708;37.478;2023-05-23T08:10:23;7.38;;;3.25;;
49824;SDS011;35714;55.708;37.478;2023-05-23T08:12:55;7.65;;;3.08;;
49824;SDS011;35714;55.708;37.478;2023-05-23T08:15:25;7.50;;;2.60;;
49824;SDS011;35714;55.708;37.478;2023-05-23T08:18:05;7.75;;;2.60;;
49824;SDS011;35714;55.708;37.478;2023-05-23T08:20:31;8.43;;;3.15;;
49824;SDS011;35714;55.708;37.478;2023-05-23T08:22:58;6.80;;;2.65;;
49824;SDS011;35714;55.708;37.478;2023-05-23T08:25:24;7.82;;;3.15;;
49824;SDS011;35714;55.708;37.478;2023-05-23T08:27:55;10.45;;;3.15;;
49824;SDS011;35714;55.708;37.478;2023-05-23T08:30:39;6.93;;;2.45;;
49824;SDS011;35714;55.708;37.478;2023-05-23T08:33:06;8.60;;;3.25;;
49824;SDS011;35714;55.708;37.478;2023-05-23T08:35:35;6.45;;;2.70;;
49824;SDS011;35714;55.708;37.478;2023-05-23T08:38:05;11.57;;;3.20;;
49824;SDS011;35714;55.708;37.478;2023-05-23T08:40:39;6.43;;;2.50;;
49824;SDS011;35714;55.708;37.478;2023-05-23T08:43:09;5.45;;;2.28;;
49824;SDS011;35714;55.708;37.478;2023-05-23T08:45:37;7.60;;;2.58;;
49824;SDS011;35714;55.708;37.478;2023-05-23T08:48:04;7.38;;;2.75;;
49824;SDS011;35714;55.708;37.478;2023-05-23T08:50:41;6.60;;;3.05;;
49824;SDS011;35714;55.708;37.478;2023-05-23T08:53:10;5.45;;;2.90;;
49824;SDS011;35714;55.708;37.478;2023-05-23T08:55:47;4.32;;;2.33;;
49824;SDS011;35714;55.708;37.478;2023-05-23T08:58:17;5.28;;;2.70;;
49824;SDS011;35714;55.708;37.478;2023-05-23T09:00:52;5.93;;;2.50;;
49824;SDS011;35714;55.708;37.478;2023-05-23T09:03:19;8.07;;;2.53;;
49824;SDS011;35714;55.708;37.478;2023-05-23T09:06:07;6.35;;;2.80;;
49824;SDS011;35714;55.708;37.478;2023-05-23T09:08:37;7.47;;;3.07;;
49824;SDS011;35714;55.708;37.478;2023-05-23T09:11:04;7.93;;;3.97;;
49824;SDS011;35714;55.708;37.478;2023-05-23T09:13:34;7.57;;;3.15;;
49824;SDS011;35714;55.708;37.478;2023-05-23T09:16:08;5.85;;;2.80;;
49824;SDS011;35714;55.708;37.478;2023-05-23T09:18:55;11.63;;;2.88;;
49824;SDS011;35714;55.708;37.478;2023-05-23T09:21:23;8.25;;;3.17;;
49824;SDS011;35714;55.708;37.478;2023-05-23T09:24:18;5.88;;;3.28;;
49824;SDS011;35714;55.708;37.478;2023-05-23T09:26:45;4.70;;;2.67;;
49824;SDS011;35714;55.708;37.478;2023-05-23T09:29:13;5.65;;;2.78;;
49824;SDS011;35714;55.708;37.478;2023-05-23T09:31:42;6.43;;;2.88;;
49824;SDS011;35714;55.708;37.478;2023-05-23T09:34:08;9.27;;;3.05;;
49824;SDS011;35714;55.708;37.478;2023-05-23T09:36:35;6.60;;;2.50;;
49824;SDS011;35714;55.708;37.478;2023-05-23T09:39:05;5.43;;;2.58;;
49824;SDS011;35714;55.708;37.478;2023-05-23T09:41:32;4.93;;;2.35;;
49824;SDS011;35714;55.708;37.478;2023-05-23T09:44:04;7.88;;;2.35;;
49824;SDS011;35714;55.708;37.478;2023-05-23T09:46:33;4.40;;;2.40;;
49824;SDS011;35714;55.708;37.478;2023-05-23T09:49:00;6.05;;;2.60;;
49824;SDS011;35714;55.708;37.478;2023-05-23T09:51:25;6.22;;;2.85;;
49824;SDS011;35714;55.708;37.478;2023-05-23T09:53:52;4.07;;;2.15;;
49824;SDS011;35714;55.708;37.478;2023-05-23T09:56:18;5.05;;;2.20;;
49824;SDS011;35714;55.708;37.478;2023-05-23T09:58:47;3.45;;;1.88;;
49824;SDS011;35714;55.708;37.478;2023-05-23T10:01:14;7.30;;;2.00;;
49824;SDS011;35714;55.708;37.478;2023-05-23T10:06:26;5.15;;;2.38;;
49824;SDS011;35714;55.708;37.478;2023-05-23T10:09:03;6.32;;;2.08;;
49824;SDS011;35714;55.708;37.478;2023-05-23T10:14:00;5.20;;;2.53;;
49824;SDS011;35714;55.708;37.478;2023-05-23T10:19:19;7.07;;;2.47;;
49824;SDS011;35714;55.708;37.478;2023-05-23T10:21:48;5.35;;;3.00;;
49824;SDS011;35714;55.708;37.478;2023-05-23T10:24:19;5.90;;;2.65;;
49824;SDS011;35714;55.708;37.478;2023-05-23T10:26:45;6.13;;;3.20;;
49824;SDS011;35714;55.708;37.478;2023-05-23T10:29:12;6.50;;;3.30;;
49824;SDS011;35714;55.708;37.478;2023-05-23T10:31:38;7.25;;;3.17;;
49824;SDS011;35714;55.708;37.478;2023-05-23T10:34:10;7.55;;;3.72;;
49824;SDS011;35714;55.708;37.478;2023-05-23T10:36:45;8.52;;;2.97;;
49824;SDS011;35714;55.708;37.478;2023-05-23T10:42:45;6.30;;;3.30;;
49824;SDS011;35714;55.708;37.478;2023-05-23T10:45:20;12.35;;;3.75;;
49824;SDS011;35714;55.708;37.478;2023-05-23T10:47:47;11.10;;;3.75;;
49824;SDS011;35714;55.708;37.478;2023-05-23T10:50:15;5.88;;;3.20;;
49824;SDS011;35714;55.708;37.478;2023-05-23T10:52:58;9.43;;;3.53;;
49824;SDS011;35714;55.708;37.478;2023-05-23T10:55:29;5.20;;;2.70;;
49824;SDS011;35714;55.708;37.478;2023-05-23T10:58:15;5.78;;;2.80;;
49824;SDS011;35714;55.708;37.478;2023-05-23T11:03:18;7.28;;;3.55;;
49824;SDS011;35714;55.708;37.478;2023-05-23T11:05:47;6.60;;;3.40;;
49824;SDS011;35714;55.708;37.478;2023-05-23T11:08:18;6.25;;;2.97;;
49824;SDS011;35714;55.708;37.478;2023-05-23T11:10:51;5.95;;;3.08;;
49824;SDS011;35714;55.708;37.478;2023-05-23T11:18:49;6.55;;;3.38;;
49824;SDS011;35714;55.708;37.478;2023-05-23T11:21:14;8.10;;;3.72;;
49824;SDS011;35714;55.708;37.478;2023-05-23T11:23:41;6.75;;;3.85;;
49824;SDS011;35714;55.708;37.478;2023-05-23T11:28:56;6.70;;;3.78;;
49824;SDS011;35714;55.708;37.478;2023-05-23T11:31:23;9.20;;;5.43;;
49824;SDS011;35714;55.708;37.478;2023-05-23T11:33:50;7.95;;;5.25;;
49824;SDS011;35714;55.708;37.478;2023-05-23T11:36:16;10.75;;;5.05;;
49824;SDS011;35714;55.708;37.478;2023-05-23T11:38:41;9.10;;;4.53;;
49824;SDS011;35714;55.708;37.478;2023-05-23T11:41:07;9.65;;;6.40;;
49824;SDS011;35714;55.708;37.478;2023-05-23T11:43:33;10.13;;;6.07;;
49824;SDS011;35714;55.708;37.478;2023-05-23T11:46:06;8.85;;;6.40;;
49824;SDS011;35714;55.708;37.478;2023-05-23T11:48:32;10.00;;;6.18;;
49824;SDS011;35714;55.708;37.478;2023-05-23T11:50:58;12.60;;;6.13;;
49824;SDS011;35714;55.708;37.478;2023-05-23T11:53:26;9.90;;;5.72;;
49824;SDS011;35714;55.708;37.478;2023-05-23T11:55:55;12.20;;;8.25;;
49824;SDS011;35714;55.708;37.478;2023-05-23T11:58:33;11.27;;;6.13;;
49824;SDS011;35714;55.708;37.478;2023-05-23T12:01:01;7.80;;;4.82;;
49824;SDS011;35714;55.708;37.478;2023-05-23T12:03:50;8.50;;;5.30;;
49824;SDS011;35714;55.708;37.478;2023-05-23T12:06:20;8.15;;;5.43;;
49824;SDS011;35714;55.708;37.478;2023-05-23T12:08:47;11.27;;;6.20;;
49824;SDS011;35714;55.708;37.478;2023-05-23T12:11:13;11.15;;;6.38;;
49824;SDS011;35714;55.708;37.478;2023-05-23T12:13:40;9.80;;;7.40;;
49824;SDS011;35714;55.708;37.478;2023-05-23T12:16:26;9.25;;;6.68;;
49824;SDS011;35714;55.708;37.478;2023-05-23T12:18:53;13.77;;;9.68;;
49824;SDS011;35714;55.708;37.478;2023-05-23T12:21:23;10.13;;;6.05;;
49824;SDS011;35714;55.708;37.478;2023-05-23T12:23:50;13.88;;;6.18;;
49824;SDS011;35714;55.708;37.478;2023-05-23T12:26:16;8.07;;;5.50;;
49824;SDS011;35714;55.708;37.478;2023-05-23T12:28:42;6.63;;;4.88;;
49824;SDS011;35714;55.708;37.478;2023-05-23T12:33:38;11.55;;;7.03;;
49824;SDS011;35714;55.708;37.478;2023-05-23T12:36:05;9.75;;;5.35;;
49824;SDS011;35714;55.708;37.478;2023-05-23T12:38:32;9.70;;;5.53;;
49824;SDS011;35714;55.708;37.478;2023-05-23T12:41:11;9.55;;;5.28;;
49824;SDS011;35714;55.708;37.478;2023-05-23T12:43:48;10.57;;;5.50;;
49824;SDS011;35714;55.708;37.478;2023-05-23T12:46:15;7.55;;;4.53;;
49824;SDS011;35714;55.708;37.478;2023-05-23T12:48:41;6.70;;;3.97;;
49824;SDS011;35714;55.708;37.478;2023-05-23T12:51:07;7.53;;;4.72;;
49824;SDS011;35714;55.708;37.478;2023-05-23T12:53:32;8.93;;;4.63;;
49824;SDS011;35714;55.708;37.478;2023-05-23T12:55:58;7.50;;;4.32;;
49824;SDS011;35714;55.708;37.478;2023-05-23T12:58:24;7.53;;;5.18;;
49824;SDS011;35714;55.708;37.478;2023-05-23T13:00:50;5.80;;;3.78;;
49824;SDS011;35714;55.708;37.478;2023-05-23T13:03:16;8.57;;;4.20;;
49824;SDS011;35714;55.708;37.478;2023-05-23T13:05:42;6.10;;;3.75;;
49824;SDS011;35714;55.708;37.478;2023-05-23T13:08:08;9.27;;;4.22;;
49824;SDS011;35714;55.708;37.478;2023-05-23T13:10:33;5.30;;;3.33;;
49824;SDS011;35714;55.708;37.478;2023-05-23T13:12:59;8.50;;;4.40;;
49824;SDS011;35714;55.708;37.478;2023-05-23T13:15:25;9.23;;;4.50;;
49824;SDS011;35714;55.708;37.478;2023-05-23T13:17:50;5.75;;;3.60;;
49824;SDS011;35714;55.708;37.478;2023-05-23T13:20:16;6.55;;;4.03;;
49824;SDS011;35714;55.708;37.478;2023-05-23T13:22:42;8.35;;;3.90;;
49824;SDS011;35714;55.708;37.478;2023-05-23T13:25:08;7.03;;;3.92;;
49824;SDS011;35714;55.708;37.478;2023-05-23T13:27:34;7.20;;;4.20;;
49824;SDS011;35714;55.708;37.478;2023-05-23T13:30:00;6.35;;;4.10;;
49824;SDS011;35714;55.708;37.478;2023-05-23T13:32:25;8.05;;;4.45;;
49824;SDS011;35714;55.708;37.478;2023-05-23T13:34:51;9.15;;;4.10;;
49824;SDS011;35714;55.708;37.478;2023-05-23T13:37:17;8.15;;;4.03;;
49824;SDS011;35714;55.708;37.478;2023-05-23T13:39:43;6.82;;;3.90;;
49824;SDS011;35714;55.708;37.478;2023-05-23T13:42:09;7.22;;;4.18;;
49824;SDS011;35714;55.708;37.478;2023-05-23T13:44:35;6.57;;;3.20;;
49824;SDS011;35714;55.708;37.478;2023-05-23T13:47:10;8.25;;;3.30;;
49824;SDS011;35714;55.708;37.478;2023-05-23T13:49:37;6.10;;;3.33;;
49824;SDS011;35714;55.708;37.478;2023-05-23T13:52:03;9.70;;;3.63;;
49824;SDS011;35714;55.708;37.478;2023-05-23T13:54:29;7.55;;;3.55;;
49824;SDS011;35714;55.708;37.478;2023-05-23T13:56:55;6.75;;;3.85;;
49824;SDS011;35714;55.708;37.478;2023-05-23T13:59:20;7.47;;;3.30;;
49824;SDS011;35714;55.708;37.478;2023-05-23T14:01:46;7.50;;;3.95;;
49824;SDS011;35714;55.708;37.478;2023-05-23T14:04:12;10.73;;;4.03;;
49824;SDS011;35714;55.708;37.478;2023-05-23T14:06:38;8.45;;;3.67;;
49824;SDS011;35714;55.708;37.478;2023-05-23T14:09:04;7.57;;;3.60;;
49824;SDS011;35714;55.708;37.478;2023-05-23T14:11:30;6.90;;;3.17;;
49824;SDS011;35714;55.708;37.478;2023-05-23T14:13:56;6.45;;;3.60;;
49824;SDS011;35714;55.708;37.478;2023-05-23T14:16:22;8.00;;;3.95;;
49824;SDS011;35714;55.708;37.478;2023-05-23T14:18:48;10.63;;;4.20;;
49824;SDS011;35714;55.708;37.478;2023-05-23T14:21:14;10.65;;;4.05;;
49824;SDS011;35714;55.708;37.478;2023-05-23T14:23:40;5.65;;;3.53;;
49824;SDS011;35714;55.708;37.478;2023-05-23T14:26:05;7.72;;;3.38;;
49824;SDS011;35714;55.708;37.478;2023-05-23T14:28:31;12.38;;;4.57;;
49824;SDS011;35714;55.708;37.478;2023-05-23T14:30:57;8.30;;;4.38;;
49824;SDS011;35714;55.708;37.478;2023-05-23T14:33:23;7.75;;;3.72;;
49824;SDS011;35714;55.708;37.478;2023-05-23T14:35:50;6.43;;;3.58;;
49824;SDS011;35714;55.708;37.478;2023-05-23T14:38:16;11.63;;;4.93;;
49824;SDS011;35714;55.708;37.478;2023-05-23T14:40:42;9.95;;;3.70;;
49824;SDS011;35714;55.708;37.478;2023-05-23T14:43:08;9.80;;;3.83;;
49824;SDS011;35714;55.708;37.478;2023-05-23T14:45:34;8.15;;;3.47;;
49824;SDS011;35714;55.708;37.478;2023-05-23T14:48:00;8.63;;;4.18;;
49824;SDS011;35714;55.708;37.478;2023-05-23T14:50:26;8.27;;;3.72;;
49824;SDS011;35714;55.708;37.478;2023-05-23T14:52:52;7.43;;;4.35;;
49824;SDS011;35714;55.708;37.478;2023-05-23T14:55:18;7.18;;;4.00;;
49824;SDS011;35714;55.708;37.478;2023-05-23T14:57:46;7.45;;;3.85;;
49824;SDS011;35714;55.708;37.478;2023-05-23T15:00:11;9.02;;;4.13;;